createdAt,value
2022-12-05T00:01:18.578Z,99639.28
2022-12-05T00:03:46.320Z,99642.63
2022-12-05T00:06:13.067Z,99653.03
2022-12-05T00:08:41.429Z,99648.50
2022-12-05T00:11:13.635Z,99659.25
2022-12-05T00:13:41.191Z,99669.47
2022-12-05T00:16:09.854Z,99668.28
2022-12-05T00:18:37.239Z,99673.13
2022-12-05T00:21:06.625Z,99666.75
2022-12-05T00:23:33.672Z,99665.38
2022-12-05T00:26:04.621Z,99666.78
2022-12-05T00:28:32.371Z,99663.84
2022-12-05T00:31:02.922Z,99658.31
2022-12-05T00:33:29.849Z,99661.00
2022-12-05T00:36:02.575Z,99664.91
2022-12-05T00:38:29.421Z,99666.44
2022-12-05T00:40:56.218Z,99663.94
2022-12-05T00:43:24.664Z,99675.47
2022-12-05T00:45:51.455Z,99680.84
2022-12-05T00:48:18.346Z,99675.22
2022-12-05T00:50:45.294Z,99677.22
2022-12-05T00:53:12.048Z,99673.50
2022-12-05T00:55:38.859Z,99668.44
2022-12-05T00:58:05.638Z,99660.03
2022-12-05T01:00:34.012Z,99672.41
2022-12-05T01:03:01.137Z,99671.09
2022-12-05T01:05:27.925Z,99668.06
2022-12-05T01:07:54.824Z,99680.06
2022-12-05T01:10:21.613Z,99679.41
2022-12-05T01:12:48.593Z,99684.06
2022-12-05T01:15:15.372Z,99687.03
2022-12-05T01:17:43.772Z,99685.38
2022-12-05T01:20:11.454Z,99694.22
2022-12-05T01:22:38.339Z,99696.38
2022-12-05T01:25:06.646Z,99697.75
2022-12-05T01:27:33.432Z,99708.19
2022-12-05T01:30:00.315Z,99711.78
2022-12-05T01:32:27.286Z,99719.47
2022-12-05T01:34:56.083Z,99714.97
2022-12-05T01:37:23.087Z,99714.97
2022-12-05T01:39:49.876Z,99715.50
2022-12-05T01:42:20.541Z,99720.34
2022-12-05T01:45:13.620Z,99719.19
2022-12-05T01:47:41.980Z,99714.72
2022-12-05T01:50:12.637Z,99716.38
2022-12-05T01:52:40.682Z,99724.88
2022-12-05T01:55:14.417Z,99710.84
2022-12-05T01:57:42.055Z,99718.88
2022-12-05T02:00:13.676Z,99724.00
2022-12-05T02:02:46.584Z,99717.34
2022-12-05T02:05:21.121Z,99719.50
2022-12-05T02:07:48.571Z,99715.84
2022-12-05T02:10:15.819Z,99722.38
2022-12-05T02:12:45.048Z,99733.75
2022-12-05T02:15:35.132Z,99734.06
2022-12-05T02:18:23.586Z,99741.75
2022-12-05T02:21:22.556Z,99733.72
2022-12-05T02:24:27.633Z,99741.09
2022-12-05T02:27:27.485Z,99736.25
2022-12-05T02:30:07.071Z,99746.41
2022-12-05T02:33:07.440Z,99746.75
2022-12-05T02:35:47.054Z,99748.09
2022-12-05T02:38:28.046Z,99755.59
2022-12-05T02:41:11.822Z,99753.25
2022-12-05T02:43:47.040Z,99754.41
2022-12-05T02:46:22.074Z,99751.72
2022-12-05T02:48:56.286Z,99749.75
2022-12-05T02:51:29.166Z,99753.44
2022-12-05T02:54:02.525Z,99762.78
2022-12-05T02:56:33.135Z,99773.44
2022-12-05T02:59:01.488Z,99773.09
2022-12-05T03:01:32.389Z,99783.97
2022-12-05T03:04:04.106Z,99792.13
2022-12-05T03:06:36.760Z,99794.28
2022-12-05T03:09:08.785Z,99801.47
2022-12-05T03:11:42.308Z,99800.81
2022-12-05T03:14:19.084Z,99791.78
2022-12-05T03:16:51.535Z,99793.28
2022-12-05T03:19:26.208Z,99803.81
2022-12-05T03:22:01.037Z,99791.66
2022-12-05T03:24:30.415Z,99788.63
2022-12-05T03:27:11.012Z,99797.31
2022-12-05T03:29:49.111Z,99812.16
2022-12-05T03:32:27.297Z,99796.16
2022-12-05T03:35:06.548Z,99805.84
2022-12-05T03:37:46.547Z,99807.84
2022-12-05T03:40:31.633Z,99800.00
2022-12-05T03:43:08.318Z,99789.63
2022-12-05T03:45:44.843Z,99786.31
2022-12-05T03:48:25.763Z,99785.78
2022-12-05T03:50:54.101Z,99790.13
2022-12-05T03:53:28.159Z,99783.78
2022-12-05T03:56:05.265Z,99787.09
2022-12-05T03:58:43.278Z,99784.94
2022-12-05T04:01:16.045Z,99802.13
2022-12-05T04:03:50.572Z,99797.44
2022-12-05T04:06:26.656Z,99797.72
2022-12-05T04:08:59.309Z,99795.38
2022-12-05T04:11:33.058Z,99794.53
2022-12-05T04:14:08.537Z,99791.22
2022-12-05T04:16:42.744Z,99793.72
2022-12-05T04:19:19.151Z,99796.69
2022-12-05T04:21:54.428Z,99801.38
2022-12-05T04:24:26.811Z,99811.94
2022-12-05T04:27:10.150Z,99813.63
2022-12-05T04:29:50.680Z,99820.16
2022-12-05T04:32:25.815Z,99811.25
2022-12-05T04:35:05.600Z,99812.44
2022-12-05T04:37:38.325Z,99815.31
2022-12-05T04:40:17.863Z,99820.00
2022-12-05T04:42:48.678Z,99814.16
2022-12-05T04:45:20.463Z,99813.97
2022-12-05T04:47:54.632Z,99810.28
2022-12-05T04:50:26.705Z,99816.13
2022-12-05T04:52:59.176Z,99820.16
2022-12-05T04:55:27.144Z,99824.50
2022-12-05T04:58:06.121Z,99825.69
2022-12-05T05:00:45.532Z,99828.88
2022-12-05T05:03:19.518Z,99828.53
2022-12-05T05:05:54.251Z,99820.50
2022-12-05T05:08:25.469Z,99824.50
2022-12-05T05:11:07.798Z,99822.28
2022-12-05T05:13:34.906Z,99817.16
2022-12-05T05:16:01.722Z,99818.78
2022-12-05T05:18:28.591Z,99821.47
2022-12-05T05:20:57.432Z,99818.13
2022-12-05T05:23:24.194Z,99819.63
2022-12-05T05:25:55.555Z,99817.09
2022-12-05T05:28:23.315Z,99823.78
2022-12-05T05:30:50.123Z,99829.31
2022-12-05T05:33:16.930Z,99841.53
2022-12-05T05:35:43.700Z,99836.84
2022-12-05T05:38:12.411Z,99826.84
2022-12-05T05:40:39.166Z,99844.22
2022-12-05T05:43:06.226Z,99836.34
2022-12-05T05:45:33.017Z,99859.22
2022-12-05T05:48:00.295Z,99848.72
2022-12-05T05:50:27.169Z,99849.75
2022-12-05T05:52:54.945Z,99851.72
2022-12-05T05:55:23.038Z,99854.91
2022-12-05T05:57:49.991Z,99866.25
2022-12-05T06:00:18.009Z,99857.41
2022-12-05T06:02:44.954Z,99863.78
2022-12-05T06:05:11.886Z,99864.13
2022-12-05T06:07:39.235Z,99868.78
2022-12-05T06:10:07.802Z,99878.31
2022-12-05T06:12:35.923Z,99886.16
2022-12-05T06:15:04.031Z,99890.31
2022-12-05T06:17:30.988Z,99893.31
2022-12-05T06:19:58.090Z,99891.00
2022-12-05T06:22:25.760Z,99893.66
2022-12-05T06:24:53.886Z,99890.50
2022-12-05T06:27:21.127Z,99881.47
2022-12-05T06:29:49.382Z,99883.31
2022-12-05T06:32:16.726Z,99877.63
2022-12-05T06:34:43.443Z,99885.16
2022-12-05T06:37:10.289Z,99877.63
2022-12-05T06:39:37.471Z,99872.28
2022-12-05T06:42:04.873Z,99879.97
2022-12-05T06:44:32.025Z,99883.47
2022-12-05T06:47:00.374Z,99898.03
2022-12-05T06:49:31.622Z,99889.31
2022-12-05T06:52:00.583Z,99898.34
2022-12-05T06:54:27.501Z,99886.97
2022-12-05T06:56:54.523Z,99893.47
2022-12-05T06:59:21.391Z,99895.00
2022-12-05T07:01:48.620Z,99897.66
2022-12-05T07:04:19.750Z,99907.69
2022-12-05T07:06:50.796Z,99922.56
2022-12-05T07:09:20.207Z,99936.63
2022-12-05T07:11:48.327Z,99929.41
2022-12-05T07:14:39.008Z,99923.72
2022-12-05T07:17:02.328Z,99933.09
2022-12-05T07:19:30.809Z,99935.09
2022-12-05T07:21:57.626Z,99943.94
2022-12-05T07:24:24.411Z,99954.16
2022-12-05T07:26:51.256Z,99953.63
2022-12-05T07:29:18.317Z,99950.47
2022-12-05T07:31:45.388Z,99947.63
2022-12-05T07:34:12.447Z,99946.13
2022-12-05T07:36:40.846Z,99945.44
2022-12-05T07:39:07.830Z,99945.63
2022-12-05T07:41:34.844Z,99938.44
2022-12-05T07:44:06.567Z,99950.63
2022-12-05T07:46:33.362Z,99942.91
2022-12-05T07:49:00.117Z,99942.06
2022-12-05T07:51:27.100Z,99942.06
2022-12-05T07:53:55.588Z,99946.03
2022-12-05T07:56:22.569Z,99943.38
2022-12-05T07:58:50.847Z,99949.75
2022-12-05T08:01:20.849Z,99952.38
2022-12-05T08:03:48.747Z,99954.41
2022-12-05T08:06:20.089Z,99947.72
2022-12-05T08:08:48.252Z,99951.22
2022-12-05T08:11:20.037Z,99959.13
2022-12-05T08:13:48.445Z,99956.41
2022-12-05T08:16:18.738Z,99946.72
2022-12-05T08:18:46.484Z,99964.91
2022-12-05T08:21:16.288Z,99963.94
2022-12-05T08:23:44.869Z,99970.34
2022-12-05T08:26:17.496Z,99975.19
2022-12-05T08:28:44.988Z,99981.88
2022-12-05T08:31:14.753Z,99982.53
2022-12-05T08:33:42.544Z,99983.38
2022-12-05T08:36:12.309Z,99982.69
2022-12-05T08:38:39.876Z,99988.56
2022-12-05T08:41:09.917Z,99994.41
2022-12-05T08:43:38.676Z,99998.94
2022-12-05T08:46:06.712Z,99993.59
2022-12-05T08:48:35.606Z,100002.78
2022-12-05T08:51:06.179Z,100001.78
2022-12-05T08:53:35.081Z,100007.28
2022-12-05T08:56:07.107Z,100012.81
2022-12-05T08:58:34.504Z,100008.63
2022-12-05T09:01:07.293Z,100010.31
2022-12-05T09:03:34.527Z,100016.31
2022-12-05T09:06:11.138Z,100019.00
2022-12-05T09:08:39.165Z,100024.16
2022-12-05T09:11:07.193Z,100026.00
2022-12-05T09:13:35.372Z,100032.53
2022-12-05T09:16:07.944Z,100033.91
2022-12-05T09:18:35.470Z,100032.88
2022-12-05T09:21:06.377Z,100039.88
2022-12-05T09:23:33.279Z,100040.56
2022-12-05T09:26:00.271Z,100042.75
2022-12-05T09:28:27.331Z,100038.38
2022-12-05T09:30:58.148Z,100041.56
2022-12-05T09:33:26.284Z,100043.56
2022-12-05T09:35:53.125Z,100034.69
2022-12-05T09:38:19.977Z,100033.53
2022-12-05T09:40:58.987Z,100034.03
2022-12-05T09:43:37.001Z,100047.06
2022-12-05T09:46:17.958Z,100050.09
2022-12-05T09:48:47.786Z,100054.25
2022-12-05T09:51:15.178Z,100057.59
2022-12-05T09:53:44.991Z,100052.28
2022-12-05T09:56:23.641Z,100055.78
2022-12-05T09:58:53.159Z,100045.72
2022-12-05T10:01:36.664Z,100051.03
2022-12-05T10:04:27.438Z,100057.91
2022-12-05T10:07:07.005Z,100053.53
2022-12-05T10:09:59.344Z,100061.19
2022-12-05T10:12:56.177Z,100058.31
2022-12-05T10:15:33.848Z,100053.97
2022-12-05T10:18:09.929Z,100058.50
2022-12-05T10:20:47.781Z,100054.09
2022-12-05T10:23:49.323Z,100055.75
2022-12-05T10:26:16.406Z,100055.31
2022-12-05T10:28:53.400Z,100055.97
2022-12-05T10:31:30.189Z,100052.09
2022-12-05T10:34:08.989Z,100060.63
2022-12-05T10:36:37.130Z,100048.84
2022-12-05T10:39:09.924Z,100048.75
2022-12-05T10:41:38.671Z,100053.59
2022-12-05T10:44:05.863Z,100050.97
2022-12-05T10:46:33.247Z,100053.66
2022-12-05T10:49:00.081Z,100053.88
2022-12-05T10:51:34.049Z,100041.16
2022-12-05T10:54:19.788Z,100041.47
2022-12-05T10:56:49.639Z,100042.44
2022-12-05T10:59:19.876Z,100026.34
2022-12-05T11:01:51.482Z,100034.31
2022-12-05T11:04:30.302Z,100026.25
2022-12-05T11:07:01.240Z,100031.34
2022-12-05T11:09:33.010Z,100036.47
2022-12-05T11:12:19.284Z,100039.13
2022-12-05T11:15:03.363Z,100047.81
2022-12-05T11:17:35.016Z,100037.75
2022-12-05T11:20:03.719Z,100047.53
2022-12-05T11:22:34.117Z,100036.47
2022-12-05T11:25:25.323Z,100040.53
2022-12-05T11:27:54.197Z,100039.47
2022-12-05T11:30:26.318Z,100038.47
2022-12-05T11:33:12.402Z,100041.81
2022-12-05T11:35:40.175Z,100039.44
2022-12-05T11:38:11.138Z,100026.00
2022-12-05T11:40:52.875Z,100031.78
2022-12-05T11:43:48.332Z,100022.31
2022-12-05T11:46:34.096Z,100027.75
2022-12-05T11:49:27.664Z,100024.28
2022-12-05T11:52:16.101Z,100024.56
2022-12-05T11:55:05.005Z,100025.94
2022-12-05T11:58:03.385Z,100018.94
2022-12-05T12:00:45.209Z,100020.44
2022-12-05T12:03:42.547Z,100016.09
2022-12-05T12:06:28.352Z,100018.25
2022-12-05T12:09:30.334Z,100013.34
2022-12-05T12:12:12.799Z,100010.94
2022-12-05T12:14:53.406Z,100016.56
2022-12-05T12:17:34.969Z,100013.34
2022-12-05T12:20:30.949Z,100017.97
2022-12-05T12:23:22.935Z,100013.59
2022-12-05T12:26:10.031Z,100010.03
2022-12-05T12:28:46.010Z,100017.13
2022-12-05T12:32:02.798Z,100018.25
2022-12-05T12:35:03.423Z,100014.50
2022-12-05T12:37:43.391Z,100015.19
2022-12-05T12:40:20.718Z,100009.19
2022-12-05T12:43:07.398Z,100005.06
2022-12-05T12:45:59.650Z,100014.22
2022-12-05T12:48:52.863Z,100012.84
2022-12-05T12:51:20.115Z,100014.81
2022-12-05T12:54:10.162Z,100016.47
2022-12-05T12:56:52.347Z,100018.13
2022-12-05T12:59:44.708Z,100011.81
2022-12-05T13:02:22.638Z,100009.44
2022-12-05T13:04:58.958Z,100011.94
2022-12-05T13:07:38.833Z,100010.25
2022-12-05T13:10:20.189Z,100012.84
2022-12-05T13:12:48.647Z,100006.94
2022-12-05T13:15:24.085Z,99995.63
2022-12-05T13:17:54.399Z,100001.00
2022-12-05T13:20:30.535Z,99998.97
2022-12-05T13:22:59.187Z,100002.22
2022-12-05T13:25:35.224Z,100007.13
2022-12-05T13:28:09.730Z,100002.78
2022-12-05T13:30:36.638Z,100006.47
2022-12-05T13:33:09.965Z,100004.63
2022-12-05T13:35:40.040Z,100008.69
2022-12-05T13:38:21.710Z,100002.19
2022-12-05T13:40:53.365Z,100006.94
2022-12-05T13:43:25.338Z,100013.41
2022-12-05T13:46:06.774Z,100007.19
2022-12-05T13:48:39.098Z,100009.22
2022-12-05T13:51:14.246Z,100008.28
2022-12-05T13:53:45.282Z,100012.84
2022-12-05T13:56:27.956Z,100016.16
2022-12-05T13:58:56.987Z,100017.84
2022-12-05T14:01:53.732Z,100019.88
2022-12-05T14:04:46.828Z,100026.44
2022-12-05T14:07:41.305Z,100030.97
2022-12-05T14:10:11.312Z,100038.00
2022-12-05T14:12:56.454Z,100026.91
2022-12-05T14:15:33.967Z,100028.41
2022-12-05T14:18:10.998Z,100035.63
2022-12-05T14:21:07.700Z,100032.94
2022-12-05T14:24:02.703Z,100034.88
2022-12-05T14:27:02.456Z,100037.91
2022-12-05T14:29:39.652Z,100048.84
2022-12-05T14:32:22.396Z,100042.22
2022-12-05T14:35:03.833Z,100049.78
2022-12-05T14:37:35.684Z,100046.94
2022-12-05T14:40:20.854Z,100047.25
2022-12-05T14:42:56.687Z,100043.72
2022-12-05T14:45:31.923Z,100047.59
2022-12-05T14:48:01.836Z,100037.22
2022-12-05T14:50:44.552Z,100041.44
2022-12-05T14:53:24.672Z,100040.31
2022-12-05T14:56:03.323Z,100044.84
2022-12-05T14:58:40.444Z,100047.69
2022-12-05T15:01:14.915Z,100043.72
2022-12-05T15:04:07.385Z,100047.25
2022-12-05T15:06:45.166Z,100044.59
2022-12-05T15:09:37.656Z,100056.31
2022-12-05T15:12:16.758Z,100051.16
2022-12-05T15:14:57.130Z,100055.56
2022-12-05T15:17:34.595Z,100046.50
2022-12-05T15:20:14.554Z,100055.66
2022-12-05T15:22:41.727Z,100056.16
2022-12-05T15:25:31.863Z,100056.00
2022-12-05T15:28:06.720Z,100060.34
2022-12-05T15:30:38.583Z,100059.97
2022-12-05T15:33:12.400Z,100063.31
2022-12-05T15:35:41.271Z,100059.25
2022-12-05T15:38:27.309Z,100060.97
2022-12-05T15:40:55.162Z,100063.19
2022-12-05T15:43:30.535Z,100065.00
2022-12-05T15:46:09.021Z,100071.34
2022-12-05T15:48:35.987Z,100068.94
2022-12-05T15:51:03.537Z,100070.28
2022-12-05T15:53:37.038Z,100067.06
2022-12-05T15:56:14.048Z,100076.75
2022-12-05T15:58:48.409Z,100071.94
2022-12-05T16:01:20.438Z,100073.59
2022-12-05T16:03:54.460Z,100076.09
2022-12-05T16:06:32.388Z,100070.91
2022-12-05T16:09:08.757Z,100074.63
2022-12-05T16:11:39.407Z,100068.94
2022-12-05T16:14:08.466Z,100070.13
2022-12-05T16:16:38.754Z,100072.25
2022-12-05T16:19:15.471Z,100081.22
2022-12-05T16:21:45.685Z,100075.91
2022-12-05T16:24:19.697Z,100083.91
2022-12-05T16:26:58.838Z,100085.94
2022-12-05T16:29:30.081Z,100091.72
2022-12-05T16:31:59.498Z,100077.41
2022-12-05T16:34:29.584Z,100089.84
2022-12-05T16:36:57.606Z,100089.47
2022-12-05T16:39:27.840Z,100089.09
2022-12-05T16:41:55.549Z,100088.06
2022-12-05T16:45:01.075Z,100082.19
2022-12-05T16:48:00.584Z,100079.97
2022-12-05T16:50:32.651Z,100086.88
2022-12-05T16:53:16.178Z,100081.34
2022-12-05T16:55:45.098Z,100092.41
2022-12-05T16:58:21.688Z,100089.06
2022-12-05T17:00:50.765Z,100102.16
2022-12-05T17:03:33.908Z,100098.50
2022-12-05T17:06:01.645Z,100105.41
2022-12-05T17:08:28.546Z,100105.56
2022-12-05T17:10:57.024Z,100117.50
2022-12-05T17:13:23.786Z,100107.13
2022-12-05T17:15:52.003Z,100109.63
2022-12-05T17:18:23.220Z,100112.66
2022-12-05T17:20:57.334Z,100110.28
2022-12-05T17:23:24.153Z,100106.09
2022-12-05T17:25:53.576Z,100101.38
2022-12-05T17:28:21.152Z,100106.53
2022-12-05T17:30:48.320Z,100105.47
2022-12-05T17:33:18.278Z,100105.47
2022-12-05T17:35:45.807Z,100103.13
2022-12-05T17:38:12.635Z,100111.47
2022-12-05T17:40:40.173Z,100104.28
2022-12-05T17:43:07.121Z,100102.44
2022-12-05T17:45:33.866Z,100098.59
2022-12-05T17:48:00.953Z,100097.38
2022-12-05T17:50:29.358Z,100096.22
2022-12-05T17:52:58.884Z,100100.41
2022-12-05T17:55:29.461Z,100108.25
2022-12-05T17:57:56.530Z,100109.09
2022-12-05T18:00:24.978Z,100110.78
2022-12-05T18:02:52.679Z,100098.75
2022-12-05T18:05:19.972Z,100099.94
2022-12-05T18:07:48.615Z,100105.88
2022-12-05T18:10:20.907Z,100102.00
2022-12-05T18:12:49.288Z,100099.53
2022-12-05T18:15:17.144Z,100105.88
2022-12-05T18:17:44.671Z,100107.19
2022-12-05T18:20:15.463Z,100106.50
2022-12-05T18:22:43.904Z,100108.50
2022-12-05T18:25:12.195Z,100103.50
2022-12-05T18:27:38.990Z,100109.72
2022-12-05T18:30:07.790Z,100105.69
2022-12-05T18:32:34.699Z,100107.84
2022-12-05T18:35:02.140Z,100105.81
2022-12-05T18:37:29.356Z,100110.03
2022-12-05T18:39:56.524Z,100117.56
2022-12-05T18:42:24.809Z,100115.56
2022-12-05T18:44:51.633Z,100116.03
2022-12-05T18:47:19.027Z,100124.22
2022-12-05T18:49:46.072Z,100121.75
2022-12-05T18:52:13.361Z,100117.69
2022-12-05T18:54:40.262Z,100122.53
2022-12-05T18:57:07.117Z,100121.34
2022-12-05T18:59:35.553Z,100115.72
2022-12-05T19:02:03.258Z,100119.44
2022-12-05T19:04:30.722Z,100119.63
2022-12-05T19:07:00.198Z,100122.84
2022-12-05T19:09:30.520Z,100122.81
2022-12-05T19:11:59.014Z,100123.84
2022-12-05T19:14:28.186Z,100120.00
2022-12-05T19:17:00.242Z,100120.16
2022-12-05T19:19:29.377Z,100116.97
2022-12-05T19:21:56.175Z,100108.59
2022-12-05T19:24:23.543Z,100124.97
2022-12-05T19:26:50.319Z,100118.75
2022-12-05T19:29:17.526Z,100110.88
2022-12-05T19:31:45.798Z,100120.59
2022-12-05T19:34:14.223Z,100127.47
2022-12-05T19:36:44.743Z,100122.97
2022-12-05T19:39:16.733Z,100128.31
2022-12-05T19:41:44.666Z,100128.31
2022-12-05T19:44:12.634Z,100132.69
2022-12-05T19:46:40.255Z,100131.19
2022-12-05T19:49:11.094Z,100123.97
2022-12-05T19:51:40.083Z,100122.66
2022-12-05T19:54:08.589Z,100125.69
2022-12-05T19:56:37.214Z,100122.66
2022-12-05T19:59:05.971Z,100122.47
2022-12-05T20:01:35.584Z,100121.78
2022-12-05T20:04:07.086Z,100121.94
2022-12-05T20:06:37.386Z,100124.09
2022-12-05T20:09:07.782Z,100122.25
2022-12-05T20:11:37.373Z,100118.75
2022-12-05T20:14:04.636Z,100124.16
2022-12-05T20:16:31.567Z,100128.53
2022-12-05T20:18:59.155Z,100120.00
2022-12-05T20:21:28.808Z,100118.81
2022-12-05T20:23:56.532Z,100119.03
2022-12-05T20:26:27.920Z,100111.81
2022-12-05T20:28:56.402Z,100109.78
2022-12-05T20:31:25.847Z,100112.31
2022-12-05T20:33:54.249Z,100121.16
2022-12-05T20:36:25.111Z,100119.00
2022-12-05T20:38:56.080Z,100122.16
2022-12-05T20:41:24.853Z,100119.16
2022-12-05T20:43:55.791Z,100115.81
2022-12-05T20:46:24.283Z,100116.66
2022-12-05T20:48:52.431Z,100109.31
2022-12-05T20:51:23.304Z,100108.78
2022-12-05T20:53:51.054Z,100116.16
2022-12-05T20:56:20.758Z,100108.63
2022-12-05T20:58:52.036Z,100105.94
2022-12-05T21:01:21.299Z,100118.66
2022-12-05T21:03:50.284Z,100115.31
2022-12-05T21:06:22.174Z,100123.38
2022-12-05T21:08:50.328Z,100122.31
2022-12-05T21:11:17.185Z,100132.69
2022-12-05T21:13:44.860Z,100131.88
2022-12-05T21:16:16.669Z,100132.19
2022-12-05T21:18:44.789Z,100134.19
2022-12-05T21:21:15.232Z,100137.22
2022-12-05T21:23:42.270Z,100135.53
2022-12-05T21:26:14.277Z,100134.38
2022-12-05T21:28:42.952Z,100131.34
2022-12-05T21:31:15.158Z,100127.50
2022-12-05T21:33:46.427Z,100122.97
2022-12-05T21:36:13.722Z,100127.66
2022-12-05T21:38:40.746Z,100126.84
2022-12-05T21:41:08.123Z,100127.34
2022-12-05T21:43:36.175Z,100127.00
2022-12-05T21:46:05.153Z,100120.81
2022-12-05T21:48:34.465Z,100124.00
2022-12-05T21:51:05.198Z,100120.34
2022-12-05T21:53:32.308Z,100124.69
2022-12-05T21:56:00.636Z,100125.00
2022-12-05T21:58:30.317Z,100121.97
2022-12-05T22:00:57.598Z,100127.34
2022-12-05T22:03:24.355Z,100126.19
2022-12-05T22:06:00.161Z,100128.53
2022-12-05T22:08:29.161Z,100132.34
2022-12-05T22:10:55.947Z,100131.53
2022-12-05T22:13:22.775Z,100133.56
2022-12-05T22:15:49.913Z,100129.03
2022-12-05T22:18:16.677Z,100134.72
2022-12-05T22:20:43.452Z,100137.72
2022-12-05T22:23:16.630Z,100130.84
2022-12-05T22:25:43.745Z,100122.69
2022-12-05T22:28:10.454Z,100126.19
2022-12-05T22:30:37.491Z,100132.22
2022-12-05T22:33:04.392Z,100124.03
2022-12-05T22:35:31.122Z,100125.22
2022-12-05T22:37:57.927Z,100123.50
2022-12-05T22:40:26.037Z,100123.19
2022-12-05T22:42:53.145Z,100122.00
2022-12-05T22:45:19.871Z,100123.34
2022-12-05T22:47:46.669Z,100116.47
2022-12-05T22:50:13.561Z,100120.50
2022-12-05T22:52:40.339Z,100122.34
2022-12-05T22:55:08.706Z,100118.00
2022-12-05T22:57:37.008Z,100116.66
2022-12-05T23:00:06.297Z,100116.00
2022-12-05T23:02:33.118Z,100120.50
2022-12-05T23:04:59.904Z,100125.53
2022-12-05T23:07:26.865Z,100125.88
2022-12-05T23:09:53.740Z,100119.84
2022-12-05T23:12:20.504Z,100118.00
2022-12-05T23:14:48.587Z,100118.00
2022-12-05T23:17:15.334Z,100115.50
2022-12-05T23:19:42.221Z,100112.81
2022-12-05T23:22:08.946Z,100101.94
2022-12-05T23:24:35.706Z,100097.44
2022-12-05T23:27:02.500Z,100096.56
2022-12-05T23:29:29.447Z,100094.25
2022-12-05T23:31:57.551Z,100088.56
2022-12-05T23:34:24.440Z,100095.44
2022-12-05T23:36:51.202Z,100100.94
2022-12-05T23:39:18.494Z,100096.91
2022-12-05T23:41:45.298Z,100093.41
2022-12-05T23:44:12.359Z,100097.44
2022-12-05T23:46:39.231Z,100092.22
2022-12-05T23:49:07.365Z,100094.06
2022-12-05T23:51:34.516Z,100089.03
2022-12-05T23:54:02.016Z,100092.25
2022-12-05T23:56:32.357Z,100087.88
2022-12-05T23:59:00.232Z,100103.13
